Back to Top

Language: 

My Weather Underground Personal Weather Station Historical Data with Graphs...

Delerius Weather Station Historical Data
Daily Summary for November 24, 2017 Units:  English    Metric   Both
« Previous Day
Next Day »
Daily Weekly Monthly Yearly Custom
  High: Low: Average:
Temperature: 46.2 °F 34.0 °F 39.6 °F
Dew Point: 38.6 °F 31.5 °F 35.3 °F
Humidity: 94 % 69 % 85 %
Wind Speed: 16.0 mph 0.0 mph 4.5 mph
Wind Gust: 23.0 mph - -
Wind:- - West
Pressure: 29.86 in 29.65 in -
Precipitation: 0.01 in    
Historical Graphs
 
 
Tabular Data for November 24, 2017
Time Temperature Dew Point Pressure Wind Wind Speed Wind Gust Humidity Rainfall Rate (Hourly) solar Conditions
00:03 38.7 °F 35.1 °F 29.65 in SE 1.0 mph 4.0 mph 87 % 0.00 in 0 W/m2
00:08 38.7 °F 35.1 °F 29.65 in ENE 1.0 mph 4.0 mph 87 % 0.00 in 0 W/m2
00:13 38.7 °F 35.1 °F 29.65 in East 2.0 mph 5.0 mph 87 % 0.00 in 0 W/m2
00:18 38.7 °F 35.1 °F 29.65 in East 3.0 mph 4.0 mph 87 % 0.00 in 0 W/m2
00:23 38.5 °F 34.9 °F 29.65 in ESE 1.0 mph 2.0 mph 87 % 0.00 in 0 W/m2
00:25 38.5 °F 34.9 °F 29.65 in ESE 1.0 mph 2.0 mph 87 % 0.00 in 0 W/m2
00:30 38.5 °F 34.9 °F 29.65 in SSW 3.0 mph 6.0 mph 87 % 0.00 in 0 W/m2
00:35 38.7 °F 35.4 °F 29.65 in SW 6.0 mph 11.0 mph 88 % 0.00 in 0 W/m2
00:40 39.0 °F 35.8 °F 29.65 in SSW 4.0 mph 7.0 mph 88 % 0.00 in 0 W/m2
00:45 39.4 °F 36.1 °F 29.65 in SSW 5.0 mph 8.0 mph 88 % 0.00 in 0 W/m2
00:50 39.6 °F 36.3 °F 29.65 in SSW 5.0 mph 8.0 mph 88 % 0.00 in 0 W/m2
00:55 39.7 °F 36.2 °F 29.65 in SW 6.0 mph 10.0 mph 87 % 0.00 in 0 W/m2
01:00 39.7 °F 36.2 °F 29.65 in SW 6.0 mph 8.0 mph 87 % 0.00 in 0 W/m2
01:05 39.7 °F 36.2 °F 29.66 in SW 5.0 mph 8.0 mph 87 % 0.00 in 0 W/m2
01:10 39.7 °F 35.9 °F 29.66 in SW 5.0 mph 7.0 mph 86 % 0.00 in 0 W/m2
01:15 39.9 °F 36.1 °F 29.66 in SW 6.0 mph 9.0 mph 86 % 0.00 in 0 W/m2
01:21 39.9 °F 36.1 °F 29.66 in SW 5.0 mph 7.0 mph 86 % 0.00 in 0 W/m2
01:26 39.9 °F 36.1 °F 29.66 in SW 5.0 mph 8.0 mph 86 % 0.00 in 0 W/m2
01:31 40.1 °F 36.2 °F 29.67 in SW 6.0 mph 8.0 mph 86 % 0.00 in 0 W/m2
01:36 40.1 °F 36.0 °F 29.66 in WSW 4.0 mph 7.0 mph 85 % 0.00 in 0 W/m2
01:46 39.7 °F 35.6 °F 29.66 in West 6.0 mph 11.0 mph 85 % 0.00 in 0 W/m2
01:51 39.7 °F 35.9 °F 29.67 in WNW 5.0 mph 7.0 mph 86 % 0.00 in 0 W/m2
01:56 39.6 °F 35.7 °F 29.67 in West 6.0 mph 9.0 mph 86 % 0.00 in 0 W/m2
02:01 39.4 °F 35.5 °F 29.67 in WNW 6.0 mph 10.0 mph 86 % 0.00 in 0 W/m2
02:06 39.4 °F 35.5 °F 29.67 in WNW 7.0 mph 10.0 mph 86 % 0.00 in 0 W/m2
02:11 39.2 °F 35.4 °F 29.67 in West 6.0 mph 9.0 mph 86 % 0.00 in 0 W/m2
02:16 39.2 °F 35.7 °F 29.67 in West 7.0 mph 10.0 mph 87 % 0.00 in 0 W/m2
02:21 39.4 °F 35.8 °F 29.67 in West 7.0 mph 12.0 mph 87 % 0.00 in 0 W/m2
02:31 39.4 °F 35.5 °F 29.68 in West 8.0 mph 13.0 mph 86 % 0.00 in 0 W/m2
02:41 39.4 °F 35.5 °F 29.68 in West 7.0 mph 13.0 mph 86 % 0.00 in 0 W/m2
02:46 39.4 °F 35.5 °F 29.68 in West 7.0 mph 11.0 mph 86 % 0.00 in 0 W/m2
02:56 39.0 °F 35.2 °F 29.68 in WNW 4.0 mph 8.0 mph 86 % 0.00 in 0 W/m2
03:01 39.0 °F 35.2 °F 29.68 in NW 3.0 mph 6.0 mph 86 % 0.00 in 0 W/m2
03:12 38.7 °F 35.1 °F 29.68 in WNW 5.0 mph 7.0 mph 87 % 0.00 in 0 W/m2
03:17 38.7 °F 35.1 °F 29.69 in WNW 4.0 mph 7.0 mph 87 % 0.00 in 0 W/m2
03:19 38.7 °F 35.1 °F 29.68 in WNW 4.0 mph 7.0 mph 87 % 0.00 in 0 W/m2
03:27 38.5 °F 35.2 °F 29.69 in WNW 4.0 mph 7.0 mph 88 % 0.00 in 0 W/m2
03:31 38.5 °F 35.2 °F 29.69 in WNW 4.0 mph 7.0 mph 88 % 0.00 in 0 W/m2
03:36 38.3 °F 35.1 °F 29.69 in WNW 5.0 mph 8.0 mph 88 % 0.00 in 0 W/m2
03:41 38.3 °F 35.1 °F 29.69 in West 7.0 mph 14.0 mph 88 % 0.00 in 0 W/m2
03:46 38.3 °F 35.1 °F 29.69 in WNW 5.0 mph 8.0 mph 88 % 0.00 in 0 W/m2
03:52 38.3 °F 35.1 °F 29.69 in West 6.0 mph 10.0 mph 88 % 0.00 in 0 W/m2
03:57 38.1 °F 34.9 °F 29.69 in West 7.0 mph 11.0 mph 88 % 0.00 in 0 W/m2
04:02 38.3 °F 35.1 °F 29.70 in WNW 4.0 mph 7.0 mph 88 % 0.00 in 0 W/m2
04:07 38.1 °F 34.9 °F 29.70 in West 5.0 mph 9.0 mph 88 % 0.00 in 0 W/m2
04:12 38.5 °F 35.2 °F 29.70 in West 6.0 mph 9.0 mph 88 % 0.00 in 0 W/m2
04:17 38.5 °F 35.2 °F 29.70 in West 6.0 mph 11.0 mph 88 % 0.00 in 0 W/m2
04:22 38.7 °F 35.1 °F 29.70 in West 6.0 mph 9.0 mph 87 % 0.00 in 0 W/m2
04:27 38.7 °F 35.1 °F 29.70 in West 7.0 mph 8.0 mph 87 % 0.00 in 0 W/m2
04:32 38.5 °F 34.9 °F 29.71 in West 5.0 mph 10.0 mph 87 % 0.00 in 0 W/m2
04:37 38.5 °F 34.9 °F 29.71 in West 5.0 mph 8.0 mph 87 % 0.00 in 0 W/m2
04:42 38.3 °F 34.8 °F 29.71 in West 3.0 mph 5.0 mph 87 % 0.00 in 0 W/m2
04:47 38.1 °F 34.6 °F 29.71 in West 1.0 mph 4.0 mph 87 % 0.00 in 0 W/m2
04:52 37.8 °F 34.2 °F 29.71 in WNW 3.0 mph 8.0 mph 87 % 0.00 in 0 W/m2
04:57 37.6 °F 34.3 °F 29.72 in WNW 4.0 mph 8.0 mph 88 % 0.00 in 0 W/m2
04:58 37.6 °F 34.3 °F 29.71 in WNW 4.0 mph 8.0 mph 88 % 0.00 in 0 W/m2
05:03 37.4 °F 34.5 °F 29.72 in West 2.0 mph 7.0 mph 89 % 0.00 in 0 W/m2
05:13 37.0 °F 34.1 °F 29.72 in West 5.0 mph 8.0 mph 89 % 0.00 in 0 W/m2
05:18 37.0 °F 34.4 °F 29.71 in West 2.0 mph 7.0 mph 90 % 0.00 in 0 W/m2
05:23 37.0 °F 34.4 °F 29.72 in West 2.0 mph 7.0 mph 90 % 0.00 in 0 W/m2
05:28 37.0 °F 34.4 °F 29.72 in West 7.0 mph 11.0 mph 90 % 0.00 in 0 W/m2
05:33 37.2 °F 34.6 °F 29.72 in West 5.0 mph 9.0 mph 90 % 0.00 in 0 W/m2
05:48 37.6 °F 34.6 °F 29.72 in West 6.0 mph 10.0 mph 89 % 0.00 in 0 W/m2
05:53 37.8 °F 34.8 °F 29.72 in West 6.0 mph 11.0 mph 89 % 0.00 in 0 W/m2
06:03 37.6 °F 34.3 °F 29.73 in WNW 6.0 mph 10.0 mph 88 % 0.00 in 0 W/m2
06:13 37.4 °F 34.5 °F 29.73 in West 6.0 mph 10.0 mph 89 % 0.00 in 0 W/m2
06:18 37.2 °F 34.3 °F 29.73 in West 4.0 mph 8.0 mph 89 % 0.00 in 0 W/m2
06:38 36.7 °F 33.7 °F 29.74 in WNW 2.0 mph 5.0 mph 89 % 0.00 in 0 W/m2
06:43 36.3 °F 33.4 °F 29.74 in WNW 2.0 mph 5.0 mph 89 % 0.00 in 0 W/m2
06:48 36.1 °F 33.2 °F 29.75 in WNW 2.0 mph 5.0 mph 89 % 0.00 in 0 W/m2
06:58 36.0 °F 33.3 °F 29.75 in WNW 3.0 mph 5.0 mph 90 % 0.00 in 0 W/m2
07:03 35.8 °F 33.1 °F 29.75 in WNW 2.0 mph 4.0 mph 90 % 0.00 in 0 W/m2
07:08 35.6 °F 33.0 °F 29.76 in NW 4.0 mph 9.0 mph 90 % 0.00 in 0 W/m2
07:13 35.8 °F 33.4 °F 29.76 in NW 3.0 mph 7.0 mph 91 % 0.00 in 0 W/m2
07:18 35.8 °F 33.4 °F 29.76 in WNW 4.0 mph 9.0 mph 91 % 0.00 in 0 W/m2
07:23 36.1 °F 33.8 °F 29.76 in WNW 2.0 mph 5.0 mph 91 % 0.00 in 0 W/m2
07:28 36.1 °F 33.5 °F 29.77 in WNW 2.0 mph 4.0 mph 90 % 0.00 in 0 W/m2
07:33 35.8 °F 33.1 °F 29.77 in WNW 1.0 mph 4.0 mph 90 % 0.00 in 0 W/m2
07:38 35.6 °F 33.0 °F 29.77 in WNW 1.0 mph 2.0 mph 90 % 0.00 in 0 W/m2
07:43 35.4 °F 32.8 °F 29.77 in WNW 2.0 mph 4.0 mph 90 % 0.00 in 5 W/m2
07:48 35.2 °F 32.6 °F 29.77 in WNW 3.0 mph 5.0 mph 90 % 0.00 in 7 W/m2
07:53 35.1 °F 32.4 °F 29.77 in WNW 2.0 mph 3.0 mph 90 % 0.00 in 9 W/m2
08:04 34.9 °F 32.2 °F 29.77 in Calm   1.0 mph 90 % 0.00 in 11 W/m2
08:14 34.3 °F 31.7 °F 29.78 in Calm     90 % 0.00 in 16 W/m2
08:19 34.2 °F 31.5 °F 29.78 in Calm   2.0 mph 90 % 0.00 in 16 W/m2
08:24 34.0 °F 31.6 °F 29.77 in Calm   1.0 mph 91 % 0.00 in 18 W/m2
08:29 34.0 °F 31.6 °F 29.77 in WNW 1.0 mph 2.0 mph 91 % 0.00 in 19 W/m2
08:34 34.0 °F 31.9 °F 29.77 in Calm     92 % 0.00 in 21 W/m2
08:44 34.2 °F 32.1 °F 29.78 in Calm   1.0 mph 92 % 0.00 in 23 W/m2
08:49 34.3 °F 32.5 °F 29.78 in WNW 1.0 mph 5.0 mph 93 % 0.00 in 26 W/m2
08:54 34.9 °F 33.1 °F 29.78 in WNW 1.0 mph 2.0 mph 93 % 0.00 in 42 W/m2
09:04 35.6 °F 33.8 °F 29.78 in WNW 3.0 mph 5.0 mph 93 % 0.00 in 132 W/m2
09:09 36.1 °F 34.3 °F 29.78 in West 4.0 mph 6.0 mph 93 % 0.00 in 146 W/m2
09:14 36.5 °F 34.7 °F 29.78 in West 1.0 mph 3.0 mph 93 % 0.00 in 155 W/m2
09:19 36.9 °F 35.0 °F 29.79 in West 1.0 mph 3.0 mph 93 % 0.00 in 163 W/m2
09:20 37.0 °F 35.2 °F 29.79 in West 1.0 mph 6.0 mph 93 % 0.00 in 163 W/m2
09:25 37.6 °F 35.7 °F 29.79 in West 3.0 mph 6.0 mph 93 % 0.00 in 176 W/m2
09:30 38.3 °F 36.2 °F 29.80 in WNW 2.0 mph 5.0 mph 92 % 0.00 in 176 W/m2
09:35 39.0 °F 36.6 °F 29.80 in West 2.0 mph 4.0 mph 91 % 0.00 in 181 W/m2
09:40 39.6 °F 36.9 °F 29.80 in West 4.0 mph 7.0 mph 90 % 0.00 in 188 W/m2
09:45 40.3 °F 37.0 °F 29.80 in West 4.0 mph 7.0 mph 88 % 0.00 in 197 W/m2
09:50 40.6 °F 37.1 °F 29.80 in West 5.0 mph 8.0 mph 87 % 0.00 in 204 W/m2
09:55 41.2 °F 37.3 °F 29.81 in West 8.0 mph 12.0 mph 86 % 0.00 in 211 W/m2
10:00 41.4 °F 37.2 °F 29.81 in West 7.0 mph 10.0 mph 85 % 0.00 in 218 W/m2
10:05 41.5 °F 37.1 °F 29.81 in West 7.0 mph 13.0 mph 84 % 0.00 in 223 W/m2
10:10 41.7 °F 37.2 °F 29.81 in West 9.0 mph 15.0 mph 84 % 0.00 in 230 W/m2
10:15 41.9 °F 37.1 °F 29.81 in West 7.0 mph 11.0 mph 83 % 0.00 in 232 W/m2
10:20 42.1 °F 37.6 °F 29.81 in West 6.0 mph 9.0 mph 84 % 0.00 in 239 W/m2
10:25 42.3 °F 37.8 °F 29.81 in West 4.0 mph 6.0 mph 84 % 0.00 in 244 W/m2
10:30 42.6 °F 37.8 °F 29.81 in West 6.0 mph 10.0 mph 83 % 0.00 in 250 W/m2
10:35 43.0 °F 37.9 °F 29.82 in West 6.0 mph 11.0 mph 82 % 0.00 in 253 W/m2
10:40 43.2 °F 37.7 °F 29.82 in West 8.0 mph 12.0 mph 81 % 0.00 in 258 W/m2
10:45 43.3 °F 37.6 °F 29.82 in West 9.0 mph 16.0 mph 80 % 0.00 in 260 W/m2
10:50 43.5 °F 37.4 °F 29.81 in West 9.0 mph 15.0 mph 79 % 0.00 in 265 W/m2
10:56 43.7 °F 37.6 °F 29.81 in West 8.0 mph 11.0 mph 79 % 0.00 in 269 W/m2
11:01 43.9 °F 37.8 °F 29.82 in West 11.0 mph 14.0 mph 79 % 0.00 in 271 W/m2
11:06 43.9 °F 37.8 °F 29.82 in West 10.0 mph 15.0 mph 79 % 0.00 in 274 W/m2
11:11 43.9 °F 37.8 °F 29.82 in West 10.0 mph 15.0 mph 79 % 0.00 in 278 W/m2
11:16 44.1 °F 38.0 °F 29.82 in West 11.0 mph 15.0 mph 79 % 0.00 in 281 W/m2
11:21 44.1 °F 38.0 °F 29.82 in West 9.0 mph 12.0 mph 79 % 0.00 in 283 W/m2
11:26 44.4 °F 38.3 °F 29.82 in West 8.0 mph 12.0 mph 79 % 0.00 in 283 W/m2
11:31 44.4 °F 38.0 °F 29.82 in West 8.0 mph 12.0 mph 78 % 0.00 in 288 W/m2
11:36 44.8 °F 38.0 °F 29.82 in WSW 9.0 mph 14.0 mph 77 % 0.00 in 218 W/m2
11:41 44.8 °F 38.0 °F 29.82 in West 8.0 mph 13.0 mph 77 % 0.00 in 311 W/m2
11:46 45.0 °F 38.2 °F 29.82 in WSW 10.0 mph 15.0 mph 77 % 0.00 in 306 W/m2
11:51 45.0 °F 38.2 °F 29.82 in WSW 9.0 mph 13.0 mph 77 % 0.00 in 290 W/m2
11:56 45.1 °F 38.4 °F 29.82 in WSW 7.0 mph 12.0 mph 77 % 0.00 in 290 W/m2
12:01 45.3 °F 38.2 °F 29.82 in WSW 7.0 mph 12.0 mph 76 % 0.00 in 288 W/m2
12:06 45.7 °F 38.2 °F 29.82 in West 8.0 mph 12.0 mph 75 % 0.00 in 287 W/m2
12:16 46.0 °F 38.6 °F 29.82 in West 9.0 mph 14.0 mph 75 % 0.00 in 292 W/m2
12:21 46.0 °F 38.2 °F 29.82 in WSW 8.0 mph 14.0 mph 74 % 0.00 in 283 W/m2
12:26 46.2 °F 38.4 °F 29.82 in WSW 8.0 mph 13.0 mph 74 % 0.00 in 278 W/m2
12:31 46.2 °F 38.4 °F 29.82 in WSW 8.0 mph 15.0 mph 74 % 0.00 in 276 W/m2
12:36 46.2 °F 38.4 °F 29.82 in West 7.0 mph 13.0 mph 74 % 0.00 in 279 W/m2
12:41 46.2 °F 38.4 °F 29.82 in WSW 9.0 mph 14.0 mph 74 % 0.00 in 272 W/m2
12:46 46.2 °F 38.4 °F 29.82 in West 11.0 mph 19.0 mph 74 % 0.00 in 267 W/m2
12:51 46.0 °F 38.2 °F 29.82 in WSW 9.0 mph 14.0 mph 74 % 0.00 in 262 W/m2
12:56 46.0 °F 38.2 °F 29.82 in WSW 11.0 mph 16.0 mph 74 % 0.00 in 260 W/m2
13:01 45.9 °F 38.0 °F 29.82 in West 9.0 mph 15.0 mph 74 % 0.00 in 255 W/m2
13:06 46.0 °F 38.2 °F 29.82 in WSW 9.0 mph 13.0 mph 74 % 0.00 in 250 W/m2
13:11 46.0 °F 38.2 °F 29.82 in West 8.0 mph 13.0 mph 74 % 0.00 in 248 W/m2
13:16 46.0 °F 38.2 °F 29.82 in WSW 12.0 mph 18.0 mph 74 % 0.00 in 244 W/m2
13:21 46.0 °F 38.2 °F 29.82 in West 10.0 mph 15.0 mph 74 % 0.00 in 237 W/m2
13:22 46.0 °F 38.2 °F 29.82 in West 8.0 mph 16.0 mph 74 % 0.00 in 237 W/m2
13:27 46.0 °F 38.2 °F 29.82 in West 9.0 mph 15.0 mph 74 % 0.00 in 230 W/m2
13:32 46.0 °F 37.9 °F 29.82 in West 10.0 mph 16.0 mph 73 % 0.00 in 227 W/m2
13:37 46.0 °F 37.9 °F 29.82 in West 8.0 mph 12.0 mph 73 % 0.00 in 221 W/m2
13:42 46.2 °F 38.0 °F 29.82 in West 10.0 mph 16.0 mph 73 % 0.00 in 213 W/m2
13:47 46.2 °F 37.7 °F 29.81 in West 13.0 mph 21.0 mph 72 % 0.00 in 206 W/m2
13:52 46.2 °F 37.7 °F 29.82 in West 14.0 mph 23.0 mph 72 % 0.00 in 199 W/m2
13:55 46.0 °F 37.5 °F 29.81 in West 14.0 mph 23.0 mph 72 % 0.00 in 195 W/m2
14:00 46.0 °F 37.5 °F 29.81 in West 12.0 mph 20.0 mph 72 % 0.00 in 190 W/m2
14:05 46.0 °F 37.5 °F 29.81 in West 15.0 mph 23.0 mph 72 % 0.00 in 181 W/m2
14:10 46.0 °F 36.8 °F 29.82 in West 16.0 mph 23.0 mph 70 % 0.00 in 169 W/m2
14:15 46.0 °F 37.2 °F 29.82 in West 13.0 mph 21.0 mph 71 % 0.00 in 120 W/m2
14:20 46.0 °F 37.2 °F 29.82 in West 10.0 mph 14.0 mph 71 % 0.00 in 162 W/m2
14:25 46.0 °F 36.8 °F 29.82 in West 13.0 mph 18.0 mph 70 % 0.00 in 158 W/m2
14:30 46.2 °F 36.6 °F 29.82 in West 10.0 mph 13.0 mph 69 % 0.00 in 149 W/m2
14:35 46.2 °F 36.6 °F 29.82 in West 10.0 mph 14.0 mph 69 % 0.00 in 137 W/m2
14:40 46.0 °F 36.4 °F 29.83 in West 8.0 mph 12.0 mph 69 % 0.00 in 120 W/m2
14:45 45.9 °F 36.6 °F 29.83 in West 7.0 mph 10.0 mph 70 % 0.00 in 111 W/m2
14:50 45.7 °F 36.5 °F 29.82 in West 9.0 mph 14.0 mph 70 % 0.00 in 97 W/m2
14:55 45.3 °F 36.1 °F 29.82 in West 10.0 mph 14.0 mph 70 % 0.00 in 67 W/m2
15:00 45.1 °F 36.3 °F 29.82 in West 8.0 mph 14.0 mph 71 % 0.00 in 32 W/m2
15:05 45.0 °F 36.1 °F 29.82 in West 9.0 mph 12.0 mph 71 % 0.00 in 28 W/m2
15:10 44.8 °F 35.9 °F 29.82 in West 8.0 mph 13.0 mph 71 % 0.00 in 26 W/m2
15:15 44.6 °F 35.8 °F 29.82 in West 9.0 mph 14.0 mph 71 % 0.00 in 23 W/m2
15:20 44.4 °F 36.0 °F 29.82 in West 5.0 mph 7.0 mph 72 % 0.00 in 21 W/m2
15:25 44.2 °F 35.8 °F 29.82 in West 5.0 mph 11.0 mph 72 % 0.00 in 21 W/m2
15:30 44.2 °F 35.8 °F 29.82 in West 5.0 mph 8.0 mph 72 % 0.00 in 18 W/m2
15:35 43.9 °F 35.4 °F 29.82 in West 6.0 mph 10.0 mph 72 % 0.00 in 14 W/m2
15:40 43.7 °F 35.3 °F 29.82 in West 5.0 mph 8.0 mph 72 % 0.00 in 12 W/m2
15:45 43.5 °F 35.1 °F 29.82 in WSW 5.0 mph 8.0 mph 72 % 0.00 in 11 W/m2
15:50 43.2 °F 35.1 °F 29.82 in West 7.0 mph 10.0 mph 73 % 0.00 in 9 W/m2
15:55 43.0 °F 34.9 °F 29.83 in West 6.0 mph 11.0 mph 73 % 0.00 in 7 W/m2
16:00 42.6 °F 34.9 °F 29.83 in WSW 5.0 mph 8.0 mph 74 % 0.00 in 5 W/m2
16:05 42.4 °F 35.1 °F 29.83 in SW 5.0 mph 8.0 mph 75 % 0.00 in 0 W/m2
16:10 42.4 °F 35.1 °F 29.82 in SW 2.0 mph 6.0 mph 75 % 0.00 in 0 W/m2
16:15 42.3 °F 34.9 °F 29.83 in SW 2.0 mph 5.0 mph 75 % 0.00 in 0 W/m2
16:20 42.1 °F 34.7 °F 29.83 in SW 2.0 mph 5.0 mph 75 % 0.00 in 0 W/m2
16:25 41.9 °F 34.9 °F 29.83 in Calm   2.0 mph 76 % 0.00 in 0 W/m2
16:30 41.7 °F 34.7 °F 29.83 in SW 1.0 mph 3.0 mph 76 % 0.00 in 0 W/m2
16:35 41.5 °F 34.5 °F 29.83 in SW 3.0 mph 5.0 mph 76 % 0.00 in 0 W/m2
16:40 41.2 °F 34.5 °F 29.83 in SW 1.0 mph 6.0 mph 77 % 0.00 in 0 W/m2
16:45 41.0 °F 34.3 °F 29.83 in SSW 1.0 mph 4.0 mph 77 % 0.00 in 0 W/m2
16:50 40.8 °F 34.5 °F 29.83 in WSW 2.0 mph 5.0 mph 78 % 0.00 in 0 W/m2
16:55 40.6 °F 34.3 °F 29.84 in SW 1.0 mph 5.0 mph 78 % 0.00 in 0 W/m2
17:00 40.5 °F 34.1 °F 29.83 in SW 2.0 mph 4.0 mph 78 % 0.00 in 0 W/m2
17:05 40.3 °F 34.3 °F 29.84 in WSW 4.0 mph 6.0 mph 79 % 0.00 in 0 W/m2
17:10 40.1 °F 34.1 °F 29.84 in WSW 3.0 mph 7.0 mph 79 % 0.00 in 0 W/m2
17:15 39.9 °F 33.9 °F 29.84 in WSW 4.0 mph 7.0 mph 79 % 0.00 in 0 W/m2
17:20 39.9 °F 34.2 °F 29.85 in West 3.0 mph 6.0 mph 80 % 0.00 in 0 W/m2
17:25 39.9 °F 34.6 °F 29.85 in WNW 10.0 mph 19.0 mph 81 % 0.00 in 0 W/m2
17:27 39.9 °F 34.6 °F 29.85 in WNW 11.0 mph 19.0 mph 81 % 0.00 in 0 W/m2
17:32 40.1 °F 35.0 °F 29.85 in WNW 8.0 mph 14.0 mph 82 % 0.00 in 0 W/m2
17:37 39.9 °F 35.2 °F 29.85 in NW 6.0 mph 11.0 mph 83 % 0.00 in 0 W/m2
17:42 39.7 °F 35.3 °F 29.85 in NW 5.0 mph 8.0 mph 84 % 0.00 in 0 W/m2
17:47 39.6 °F 35.1 °F 29.85 in WNW 5.0 mph 8.0 mph 84 % 0.00 in 0 W/m2
17:51 39.4 °F 35.2 °F 29.85 in WNW 2.0 mph 5.0 mph 85 % 0.00 in 0 W/m2
17:57 39.0 °F 35.2 °F 29.85 in NW 5.0 mph 9.0 mph 86 % 0.00 in 0 W/m2
18:02 38.7 °F 34.8 °F 29.85 in NW 4.0 mph 9.0 mph 86 % 0.00 in 0 W/m2
18:07 38.3 °F 34.5 °F 29.85 in NW 5.0 mph 10.0 mph 86 % 0.00 in 0 W/m2
18:12 38.1 °F 34.6 °F 29.85 in Calm   3.0 mph 87 % 0.00 in 0 W/m2
18:17 37.9 °F 34.7 °F 29.85 in WNW 2.0 mph 5.0 mph 88 % 0.00 in 0 W/m2
18:22 37.9 °F 34.7 °F 29.85 in WNW 2.0 mph 4.0 mph 88 % 0.00 in 0 W/m2
18:27 37.9 °F 34.7 °F 29.85 in Calm   2.0 mph 88 % 0.00 in 0 W/m2
18:32 37.9 °F 35.0 °F 29.85 in Calm     89 % 0.00 in 0 W/m2
18:37 37.9 °F 35.0 °F 29.85 in Calm     89 % 0.00 in 0 W/m2
18:42 37.9 °F 35.0 °F 29.85 in Calm     89 % 0.00 in 0 W/m2
18:47 37.9 °F 35.0 °F 29.85 in Calm     89 % 0.00 in 0 W/m2
18:52 37.8 °F 34.8 °F 29.84 in Calm     89 % 0.00 in 0 W/m2
18:57 37.6 °F 34.6 °F 29.85 in WNW 2.0 mph 4.0 mph 89 % 0.00 in 0 W/m2
19:02 37.4 °F 34.5 °F 29.85 in WNW 1.0 mph 3.0 mph 89 % 0.00 in 0 W/m2
19:07 37.2 °F 34.6 °F 29.84 in Calm     90 % 0.00 in 0 W/m2
19:12 37.2 °F 34.6 °F 29.85 in Calm     90 % 0.00 in 0 W/m2
19:17 37.2 °F 34.6 °F 29.85 in Calm     90 % 0.00 in 0 W/m2
19:22 37.2 °F 34.6 °F 29.85 in Calm     90 % 0.00 in 0 W/m2
19:27 37.0 °F 34.4 °F 29.86 in Calm   3.0 mph 90 % 0.00 in 0 W/m2
19:32 37.0 °F 34.7 °F 29.86 in Calm   1.0 mph 91 % 0.00 in 0 W/m2
19:37 37.2 °F 34.8 °F 29.86 in Calm   2.0 mph 91 % 0.00 in 0 W/m2
19:42 37.4 °F 35.0 °F 29.86 in West 5.0 mph 8.0 mph 91 % 0.01 in 0 W/m2
19:47 37.6 °F 35.2 °F 29.86 in WNW 2.0 mph 6.0 mph 91 % 0.01 in 0 W/m2
19:52 37.6 °F 35.2 °F 29.85 in WNW 3.0 mph 6.0 mph 91 % 0.01 in 0 W/m2
19:53 37.6 °F 35.2 °F 29.85 in West 5.0 mph 7.0 mph 91 % 0.01 in 0 W/m2
19:58 37.6 °F 35.2 °F 29.86 in West 3.0 mph 4.0 mph 91 % 0.01 in 0 W/m2
20:03 37.6 °F 35.2 °F 29.86 in West 2.0 mph 5.0 mph 91 % 0.01 in 0 W/m2
20:08 37.6 °F 35.2 °F 29.86 in Calm     91 % 0.01 in 0 W/m2
20:13 37.4 °F 35.0 °F 29.86 in Calm     91 % 0.01 in 0 W/m2
20:18 37.4 °F 35.3 °F 29.86 in West 2.0 mph 4.0 mph 92 % 0.01 in 0 W/m2
20:23 37.4 °F 35.3 °F 29.86 in WSW 3.0 mph 5.0 mph 92 % 0.01 in 0 W/m2
20:28 37.6 °F 35.5 °F 29.86 in WSW 3.0 mph 5.0 mph 92 % 0.01 in 0 W/m2
20:33 37.6 °F 35.5 °F 29.85 in SW 1.0 mph 4.0 mph 92 % 0.01 in 0 W/m2
20:39 37.6 °F 35.5 °F 29.85 in Calm   1.0 mph 92 % 0.00 in 0 W/m2
20:44 37.4 °F 35.3 °F 29.85 in Calm     92 % 0.00 in 0 W/m2
20:49 37.4 °F 35.3 °F 29.85 in SW 1.0 mph 2.0 mph 92 % 0.00 in 0 W/m2
20:54 37.4 °F 35.3 °F 29.85 in Calm   2.0 mph 92 % 0.00 in 0 W/m2
20:59 37.2 °F 35.1 °F 29.85 in Calm     92 % 0.00 in 0 W/m2
21:04 37.0 °F 34.9 °F 29.85 in Calm     92 % 0.00 in 0 W/m2
21:09 36.9 °F 34.8 °F 29.85 in Calm     92 % 0.00 in 0 W/m2
21:14 36.7 °F 34.3 °F 29.85 in Calm     91 % 0.00 in 0 W/m2
21:19 36.3 °F 34.2 °F 29.85 in Calm     92 % 0.00 in 0 W/m2
21:24 36.1 °F 33.8 °F 29.84 in SW 1.0 mph 2.0 mph 91 % 0.00 in 0 W/m2
21:29 36.0 °F 33.9 °F 29.84 in Calm     92 % 0.00 in 0 W/m2
21:34 35.8 °F 33.7 °F 29.84 in Calm     92 % 0.00 in 0 W/m2
21:39 35.6 °F 33.5 °F 29.84 in Calm     92 % 0.00 in 0 W/m2
21:44 35.2 °F 33.1 °F 29.84 in Calm     92 % 0.00 in 0 W/m2
21:49 35.2 °F 33.1 °F 29.84 in SW 1.0 mph 3.0 mph 92 % 0.00 in 0 W/m2
21:54 35.1 °F 33.0 °F 29.84 in Calm   1.0 mph 92 % 0.00 in 0 W/m2
21:59 35.1 °F 33.2 °F 29.85 in Calm     93 % 0.00 in 0 W/m2
22:04 34.9 °F 33.1 °F 29.85 in Calm     93 % 0.00 in 0 W/m2
22:09 34.9 °F 33.1 °F 29.85 in Calm     93 % 0.00 in 0 W/m2
22:14 34.5 °F 32.4 °F 29.85 in Calm   1.0 mph 92 % 0.00 in 0 W/m2
22:19 34.5 °F 32.7 °F 29.85 in SW 1.0 mph 3.0 mph 93 % 0.00 in 0 W/m2
22:24 34.3 °F 32.5 °F 29.85 in West 3.0 mph 5.0 mph 93 % 0.00 in 0 W/m2
22:29 34.3 °F 32.5 °F 29.85 in WNW 2.0 mph 5.0 mph 93 % 0.00 in 0 W/m2
22:34 34.5 °F 32.7 °F 29.85 in WNW 3.0 mph 5.0 mph 93 % 0.00 in 0 W/m2
22:39 34.5 °F 33.0 °F 29.85 in WNW 2.0 mph 4.0 mph 94 % 0.00 in 0 W/m2
22:44 34.7 °F 33.2 °F 29.85 in WNW 3.0 mph 5.0 mph 94 % 0.00 in 0 W/m2
22:49 34.7 °F 33.2 °F 29.85 in West 3.0 mph 6.0 mph 94 % 0.00 in 0 W/m2
22:54 34.9 °F 33.3 °F 29.85 in West 2.0 mph 5.0 mph 94 % 0.00 in 0 W/m2
22:59 35.1 °F 33.5 °F 29.85 in WNW 3.0 mph 5.0 mph 94 % 0.00 in 0 W/m2
23:04 35.1 °F 33.5 °F 29.85 in NW 3.0 mph 5.0 mph 94 % 0.00 in 0 W/m2
23:09 35.1 °F 33.5 °F 29.85 in NW 3.0 mph 5.0 mph 94 % 0.00 in 0 W/m2
23:14 35.1 °F 33.5 °F 29.85 in NW 2.0 mph 5.0 mph 94 % 0.00 in 0 W/m2
23:19 35.1 °F 33.5 °F 29.85 in WNW 4.0 mph 6.0 mph 94 % 0.00 in 0 W/m2
23:20 35.1 °F 33.5 °F 29.85 in WNW 4.0 mph 6.0 mph 94 % 0.00 in 0 W/m2
23:25 35.1 °F 33.5 °F 29.85 in West 3.0 mph 5.0 mph 94 % 0.00 in 0 W/m2
23:30 35.1 °F 33.5 °F 29.85 in West 2.0 mph 4.0 mph 94 % 0.00 in 0 W/m2
23:35 35.1 °F 33.5 °F 29.85 in West 2.0 mph 4.0 mph 94 % 0.00 in 0 W/m2
23:40 34.9 °F 33.3 °F 29.85 in West 1.0 mph 4.0 mph 94 % 0.00 in 0 W/m2
23:45 35.1 °F 33.5 °F 29.85 in WSW 2.0 mph 4.0 mph 94 % 0.00 in 0 W/m2
23:50 35.1 °F 33.5 °F 29.85 in NW 2.0 mph 4.0 mph 94 % 0.00 in 0 W/m2
Delerius-Weather
Compliments of Weather Underground - 2.25 mb

Data updates at regular intervals.